sensor_id;sensor_type;location;lat;lon;timestamp;pressure;altitude;pressure_sealevel;temperature;humidity
23733;BME280;12047;53.450;-2.286;2023-03-21T00:02:44;100542.06;;;17.25;100.00
23733;BME280;12047;53.450;-2.286;2023-03-21T00:07:46;100534.66;;;17.13;100.00
23733;BME280;12047;53.450;-2.286;2023-03-21T00:12:46;100522.06;;;17.72;100.00
23733;BME280;12047;53.450;-2.286;2023-03-21T00:17:49;100518.72;;;17.05;100.00
23733;BME280;12047;53.450;-2.286;2023-03-21T00:22:50;100506.28;;;17.33;100.00
23733;BME280;12047;53.450;-2.286;2023-03-21T00:27:51;100498.66;;;17.15;100.00
23733;BME280;12047;53.450;-2.286;2023-03-21T00:32:52;100490.91;;;16.91;100.00
23733;BME280;12047;53.450;-2.286;2023-03-21T00:37:52;100484.06;;;17.18;100.00
23733;BME280;12047;53.450;-2.286;2023-03-21T00:42:53;100476.13;;;17.10;100.00
23733;BME280;12047;53.450;-2.286;2023-03-21T00:47:53;100470.41;;;16.69;100.00
23733;BME280;12047;53.450;-2.286;2023-03-21T00:52:54;100475.31;;;17.24;100.00
23733;BME280;12047;53.450;-2.286;2023-03-21T00:57:54;100459.56;;;17.50;100.00
23733;BME280;12047;53.450;-2.286;2023-03-21T01:02:55;100446.81;;;16.72;100.00
23733;BME280;12047;53.450;-2.286;2023-03-21T01:07:56;100436.28;;;16.85;100.00
23733;BME280;12047;53.450;-2.286;2023-03-21T01:12:56;100426.44;;;16.33;100.00
23733;BME280;12047;53.450;-2.286;2023-03-21T01:17:57;100420.16;;;16.64;100.00
23733;BME280;12047;53.450;-2.286;2023-03-21T01:23:00;100400.41;;;16.65;100.00
23733;BME280;12047;53.450;-2.286;2023-03-21T01:28:01;100397.16;;;16.55;100.00
23733;BME280;12047;53.450;-2.286;2023-03-21T01:33:01;100406.59;;;16.65;100.00
23733;BME280;12047;53.450;-2.286;2023-03-21T01:38:04;100405.53;;;16.37;100.00
23733;BME280;12047;53.450;-2.286;2023-03-21T01:43:19;100386.25;;;16.86;100.00
23733;BME280;12047;53.450;-2.286;2023-03-21T01:48:21;100389.94;;;16.41;100.00
23733;BME280;12047;53.450;-2.286;2023-03-21T01:53:26;100384.66;;;16.03;100.00
23733;BME280;12047;53.450;-2.286;2023-03-21T01:58:29;100385.75;;;16.76;100.00
23733;BME280;12047;53.450;-2.286;2023-03-21T02:03:31;100386.44;;;16.40;100.00
23733;BME280;12047;53.450;-2.286;2023-03-21T02:08:37;100382.28;;;16.23;100.00
23733;BME280;12047;53.450;-2.286;2023-03-21T02:13:37;100388.22;;;16.33;100.00
23733;BME280;12047;53.450;-2.286;2023-03-21T02:18:53;100381.63;;;16.36;100.00
23733;BME280;12047;53.450;-2.286;2023-03-21T02:29:12;100361.94;;;16.81;100.00
23733;BME280;12047;53.450;-2.286;2023-03-21T02:45:01;100347.16;;;16.85;100.00
23733;BME280;12047;53.450;-2.286;2023-03-21T02:50:10;100347.25;;;16.47;100.00
23733;BME280;12047;53.450;-2.286;2023-03-21T02:55:16;100343.22;;;16.81;100.00
23733;BME280;12047;53.450;-2.286;2023-03-21T03:00:21;100336.66;;;16.54;100.00
23733;BME280;12047;53.450;-2.286;2023-03-21T03:05:25;100334.25;;;16.00;100.00
23733;BME280;12047;53.450;-2.286;2023-03-21T03:15:40;100323.56;;;17.10;100.00
23733;BME280;12047;53.450;-2.286;2023-03-21T03:20:52;100320.34;;;16.49;100.00
23733;BME280;12047;53.450;-2.286;2023-03-21T03:31:11;100304.50;;;16.32;100.00
23733;BME280;12047;53.450;-2.286;2023-03-21T03:36:15;100302.78;;;16.61;100.00
23733;BME280;12047;53.450;-2.286;2023-03-21T03:41:20;100305.41;;;16.25;100.00
23733;BME280;12047;53.450;-2.286;2023-03-21T03:46:29;100297.47;;;16.97;100.00
23733;BME280;12047;53.450;-2.286;2023-03-21T03:52:30;100296.25;;;16.63;100.00
23733;BME280;12047;53.450;-2.286;2023-03-21T03:57:11;100272.09;;;16.57;100.00
23733;BME280;12047;53.450;-2.286;2023-03-21T04:02:13;100271.03;;;16.87;100.00
23733;BME280;12047;53.450;-2.286;2023-03-21T04:07:14;100262.78;;;16.38;100.00
23733;BME280;12047;53.450;-2.286;2023-03-21T04:12:14;100248.84;;;16.72;100.00
23733;BME280;12047;53.450;-2.286;2023-03-21T04:17:15;100242.25;;;16.24;100.00
23733;BME280;12047;53.450;-2.286;2023-03-21T04:22:16;100233.56;;;16.51;100.00
23733;BME280;12047;53.450;-2.286;2023-03-21T04:27:17;100229.41;;;16.34;100.00
23733;BME280;12047;53.450;-2.286;2023-03-21T04:32:18;100222.66;;;16.67;100.00
23733;BME280;12047;53.450;-2.286;2023-03-21T04:37:20;100209.00;;;16.12;100.00
23733;BME280;12047;53.450;-2.286;2023-03-21T04:42:22;100206.50;;;16.97;100.00
23733;BME280;12047;53.450;-2.286;2023-03-21T04:47:23;100207.19;;;15.83;100.00
23733;BME280;12047;53.450;-2.286;2023-03-21T04:52:24;100209.69;;;16.35;100.00
23733;BME280;12047;53.450;-2.286;2023-03-21T04:57:24;100200.78;;;16.28;100.00
23733;BME280;12047;53.450;-2.286;2023-03-21T05:02:25;100182.94;;;16.35;100.00
23733;BME280;12047;53.450;-2.286;2023-03-21T05:07:28;100168.25;;;16.24;100.00
23733;BME280;12047;53.450;-2.286;2023-03-21T05:12:30;100170.84;;;16.18;100.00
23733;BME280;12047;53.450;-2.286;2023-03-21T05:17:31;100174.50;;;16.31;100.00
23733;BME280;12047;53.450;-2.286;2023-03-21T05:22:31;100177.53;;;15.78;100.00
23733;BME280;12047;53.450;-2.286;2023-03-21T05:27:39;100165.81;;;16.08;100.00
23733;BME280;12047;53.450;-2.286;2023-03-21T05:32:44;100179.81;;;15.95;100.00
23733;BME280;12047;53.450;-2.286;2023-03-21T05:37:45;100175.91;;;16.27;100.00
23733;BME280;12047;53.450;-2.286;2023-03-21T05:42:46;100164.50;;;16.04;100.00
23733;BME280;12047;53.450;-2.286;2023-03-21T05:47:47;100156.72;;;16.24;100.00
23733;BME280;12047;53.450;-2.286;2023-03-21T05:52:47;100161.88;;;16.25;100.00
23733;BME280;12047;53.450;-2.286;2023-03-21T05:57:48;100168.00;;;16.05;100.00
23733;BME280;12047;53.450;-2.286;2023-03-21T06:02:48;100158.84;;;16.28;100.00
23733;BME280;12047;53.450;-2.286;2023-03-21T06:07:49;100143.19;;;16.25;100.00
23733;BME280;12047;53.450;-2.286;2023-03-21T06:12:49;100135.59;;;16.29;100.00
23733;BME280;12047;53.450;-2.286;2023-03-21T06:17:50;100140.31;;;16.27;100.00
23733;BME280;12047;53.450;-2.286;2023-03-21T06:22:50;100124.19;;;16.20;100.00
23733;BME280;12047;53.450;-2.286;2023-03-21T06:27:51;100125.50;;;16.46;100.00
23733;BME280;12047;53.450;-2.286;2023-03-21T06:32:52;100127.13;;;16.25;100.00
23733;BME280;12047;53.450;-2.286;2023-03-21T06:37:54;100124.88;;;16.08;100.00
23733;BME280;12047;53.450;-2.286;2023-03-21T06:42:57;100134.28;;;15.89;100.00
23733;BME280;12047;53.450;-2.286;2023-03-21T06:47:58;100129.22;;;15.94;100.00
23733;BME280;12047;53.450;-2.286;2023-03-21T06:52:59;100122.31;;;15.55;100.00
23733;BME280;12047;53.450;-2.286;2023-03-21T06:57:59;100111.81;;;15.98;100.00
23733;BME280;12047;53.450;-2.286;2023-03-21T07:03:00;100116.44;;;16.25;100.00
23733;BME280;12047;53.450;-2.286;2023-03-21T07:08:02;100120.09;;;16.03;100.00
23733;BME280;12047;53.450;-2.286;2023-03-21T07:13:02;100116.31;;;16.33;100.00
23733;BME280;12047;53.450;-2.286;2023-03-21T07:18:04;100110.47;;;16.45;100.00
23733;BME280;12047;53.450;-2.286;2023-03-21T07:23:05;100111.31;;;16.66;100.00
23733;BME280;12047;53.450;-2.286;2023-03-21T07:28:06;100107.16;;;16.43;100.00
23733;BME280;12047;53.450;-2.286;2023-03-21T07:33:08;100102.25;;;17.17;100.00
23733;BME280;12047;53.450;-2.286;2023-03-21T07:38:09;100109.25;;;16.47;100.00
23733;BME280;12047;53.450;-2.286;2023-03-21T07:43:14;100121.31;;;16.58;100.00
23733;BME280;12047;53.450;-2.286;2023-03-21T07:48:17;100126.50;;;16.81;100.00
23733;BME280;12047;53.450;-2.286;2023-03-21T07:53:18;100133.66;;;17.29;100.00
23733;BME280;12047;53.450;-2.286;2023-03-21T07:58:19;100117.34;;;16.54;100.00
23733;BME280;12047;53.450;-2.286;2023-03-21T08:03:21;100114.66;;;17.52;100.00
23733;BME280;12047;53.450;-2.286;2023-03-21T08:08:26;100120.16;;;17.16;100.00
23733;BME280;12047;53.450;-2.286;2023-03-21T08:13:26;100104.84;;;17.04;100.00
23733;BME280;12047;53.450;-2.286;2023-03-21T08:18:27;100096.44;;;17.07;100.00
23733;BME280;12047;53.450;-2.286;2023-03-21T08:23:27;100091.47;;;17.38;100.00
23733;BME280;12047;53.450;-2.286;2023-03-21T08:28:32;100078.94;;;17.11;100.00
23733;BME280;12047;53.450;-2.286;2023-03-21T08:33:33;100076.97;;;17.54;100.00
23733;BME280;12047;53.450;-2.286;2023-03-21T08:38:33;100074.19;;;17.41;100.00
23733;BME280;12047;53.450;-2.286;2023-03-21T08:43:35;100072.81;;;17.17;100.00
23733;BME280;12047;53.450;-2.286;2023-03-21T08:48:35;100059.66;;;18.11;100.00
23733;BME280;12047;53.450;-2.286;2023-03-21T08:53:38;100069.41;;;17.36;100.00
23733;BME280;12047;53.450;-2.286;2023-03-21T08:58:40;100055.19;;;19.17;100.00
23733;BME280;12047;53.450;-2.286;2023-03-21T09:03:42;100057.84;;;18.38;100.00
23733;BME280;12047;53.450;-2.286;2023-03-21T09:08:42;100063.84;;;18.26;100.00
23733;BME280;12047;53.450;-2.286;2023-03-21T09:13:50;100052.53;;;18.90;100.00
23733;BME280;12047;53.450;-2.286;2023-03-21T09:18:53;100054.34;;;19.29;100.00
23733;BME280;12047;53.450;-2.286;2023-03-21T09:23:56;100044.66;;;20.18;100.00
23733;BME280;12047;53.450;-2.286;2023-03-21T09:28:59;100036.97;;;19.90;100.00
23733;BME280;12047;53.450;-2.286;2023-03-21T09:34:00;100035.50;;;19.36;100.00
23733;BME280;12047;53.450;-2.286;2023-03-21T09:39:01;100038.38;;;21.05;100.00
23733;BME280;12047;53.450;-2.286;2023-03-21T09:49:27;100033.25;;;19.91;100.00
23733;BME280;12047;53.450;-2.286;2023-03-21T09:54:39;100019.50;;;20.05;100.00
23733;BME280;12047;53.450;-2.286;2023-03-21T09:59:44;100032.59;;;19.37;100.00
23733;BME280;12047;53.450;-2.286;2023-03-21T10:04:54;100039.91;;;19.82;100.00
23733;BME280;12047;53.450;-2.286;2023-03-21T10:09:57;100025.69;;;19.75;100.00
23733;BME280;12047;53.450;-2.286;2023-03-21T10:15:00;100032.28;;;19.79;100.00
23733;BME280;12047;53.450;-2.286;2023-03-21T10:20:23;100028.75;;;19.07;100.00
23733;BME280;12047;53.450;-2.286;2023-03-21T10:25:33;100027.16;;;18.80;100.00
23733;BME280;12047;53.450;-2.286;2023-03-21T10:30:38;100021.50;;;19.14;100.00
23733;BME280;12047;53.450;-2.286;2023-03-21T10:35:42;100021.31;;;19.22;100.00
23733;BME280;12047;53.450;-2.286;2023-03-21T10:40:52;100037.22;;;18.58;100.00
23733;BME280;12047;53.450;-2.286;2023-03-21T10:45:54;100034.53;;;19.17;100.00
23733;BME280;12047;53.450;-2.286;2023-03-21T10:50:54;100030.19;;;19.23;100.00
23733;BME280;12047;53.450;-2.286;2023-03-21T10:55:58;100027.94;;;19.07;100.00
23733;BME280;12047;53.450;-2.286;2023-03-21T11:01:07;100043.13;;;19.46;100.00
23733;BME280;12047;53.450;-2.286;2023-03-21T11:06:32;100046.50;;;19.28;100.00
23733;BME280;12047;53.450;-2.286;2023-03-21T11:11:44;100038.81;;;19.51;100.00
23733;BME280;12047;53.450;-2.286;2023-03-21T11:16:49;100040.94;;;19.23;100.00
23733;BME280;12047;53.450;-2.286;2023-03-21T11:21:50;100060.34;;;19.12;100.00
23733;BME280;12047;53.450;-2.286;2023-03-21T11:26:51;100050.47;;;18.92;100.00
23733;BME280;12047;53.450;-2.286;2023-03-21T11:31:57;100046.84;;;19.45;100.00
23733;BME280;12047;53.450;-2.286;2023-03-21T11:37:20;100042.59;;;19.11;100.00
23733;BME280;12047;53.450;-2.286;2023-03-21T11:42:29;100034.44;;;19.44;100.00
23733;BME280;12047;53.450;-2.286;2023-03-21T11:47:33;100031.06;;;19.75;100.00
23733;BME280;12047;53.450;-2.286;2023-03-21T11:52:40;100016.91;;;19.92;100.00
23733;BME280;12047;53.450;-2.286;2023-03-21T11:58:04;100016.84;;;20.62;100.00
23733;BME280;12047;53.450;-2.286;2023-03-21T12:08:59;100024.53;;;20.58;100.00
23733;BME280;12047;53.450;-2.286;2023-03-21T12:24:55;100009.81;;;20.61;100.00
23733;BME280;12047;53.450;-2.286;2023-03-21T12:35:41;100019.28;;;20.07;100.00
23733;BME280;12047;53.450;-2.286;2023-03-21T12:46:01;100020.41;;;20.81;100.00
23733;BME280;12047;53.450;-2.286;2023-03-21T12:51:07;100013.09;;;20.38;100.00
23733;BME280;12047;53.450;-2.286;2023-03-21T12:56:19;100002.09;;;20.89;100.00
23733;BME280;12047;53.450;-2.286;2023-03-21T13:01:21;100003.03;;;20.27;100.00
23733;BME280;12047;53.450;-2.286;2023-03-21T13:06:26;100007.38;;;21.02;100.00
23733;BME280;12047;53.450;-2.286;2023-03-21T13:11:29;100005.28;;;20.80;100.00
23733;BME280;12047;53.450;-2.286;2023-03-21T13:22:24;99999.59;;;20.69;100.00
23733;BME280;12047;53.450;-2.286;2023-03-21T13:27:34;100002.03;;;20.53;100.00
23733;BME280;12047;53.450;-2.286;2023-03-21T13:32:40;100004.03;;;20.57;100.00
23733;BME280;12047;53.450;-2.286;2023-03-21T13:37:49;99997.09;;;20.18;100.00
23733;BME280;12047;53.450;-2.286;2023-03-21T13:42:54;99998.91;;;19.48;100.00
23733;BME280;12047;53.450;-2.286;2023-03-21T13:53:39;100019.81;;;19.33;100.00
23733;BME280;12047;53.450;-2.286;2023-03-21T14:03:48;99982.94;;;19.98;100.00
23733;BME280;12047;53.450;-2.286;2023-03-21T14:08:48;99993.69;;;20.79;100.00
23733;BME280;12047;53.450;-2.286;2023-03-21T14:13:52;99978.28;;;19.80;100.00
23733;BME280;12047;53.450;-2.286;2023-03-21T14:19:00;99985.81;;;20.03;100.00
23733;BME280;12047;53.450;-2.286;2023-03-21T14:29:07;99970.59;;;19.39;98.13
23733;BME280;12047;53.450;-2.286;2023-03-21T14:34:17;99971.09;;;20.37;96.83
23733;BME280;12047;53.450;-2.286;2023-03-21T14:39:38;99987.06;;;20.00;98.28
23733;BME280;12047;53.450;-2.286;2023-03-21T14:44:40;99984.53;;;20.05;98.46
23733;BME280;12047;53.450;-2.286;2023-03-21T14:49:42;99978.56;;;19.65;97.81
23733;BME280;12047;53.450;-2.286;2023-03-21T14:54:48;99973.28;;;19.52;99.50
23733;BME280;12047;53.450;-2.286;2023-03-21T14:59:51;99970.34;;;19.60;100.00
23733;BME280;12047;53.450;-2.286;2023-03-21T15:04:57;99961.66;;;19.96;98.89
23733;BME280;12047;53.450;-2.286;2023-03-21T15:10:07;99959.97;;;19.13;99.51
23733;BME280;12047;53.450;-2.286;2023-03-21T15:15:12;99967.31;;;19.30;99.65
23733;BME280;12047;53.450;-2.286;2023-03-21T15:20:15;99968.84;;;19.07;100.00
23733;BME280;12047;53.450;-2.286;2023-03-21T15:25:18;99955.75;;;19.36;100.00
23733;BME280;12047;53.450;-2.286;2023-03-21T15:30:24;99959.78;;;19.08;100.00
23733;BME280;12047;53.450;-2.286;2023-03-21T15:35:34;99961.00;;;19.12;100.00
23733;BME280;12047;53.450;-2.286;2023-03-21T15:40:37;99963.59;;;18.74;100.00
23733;BME280;12047;53.450;-2.286;2023-03-21T15:45:58;99975.53;;;18.84;100.00
23733;BME280;12047;53.450;-2.286;2023-03-21T15:51:09;99966.06;;;18.42;100.00
23733;BME280;12047;53.450;-2.286;2023-03-21T15:56:16;99962.50;;;18.88;100.00
23733;BME280;12047;53.450;-2.286;2023-03-21T16:01:20;99957.28;;;19.13;100.00
23733;BME280;12047;53.450;-2.286;2023-03-21T16:06:26;99949.50;;;18.91;100.00
23733;BME280;12047;53.450;-2.286;2023-03-21T16:11:41;99965.59;;;19.05;98.97
23733;BME280;12047;53.450;-2.286;2023-03-21T16:16:45;99960.91;;;18.47;99.68
23733;BME280;12047;53.450;-2.286;2023-03-21T16:21:45;99954.91;;;18.65;98.72
23733;BME280;12047;53.450;-2.286;2023-03-21T16:26:49;99952.44;;;18.37;97.43
23733;BME280;12047;53.450;-2.286;2023-03-21T16:31:51;99948.31;;;18.28;95.74
23733;BME280;12047;53.450;-2.286;2023-03-21T16:36:57;99929.31;;;18.62;95.24
23733;BME280;12047;53.450;-2.286;2023-03-21T16:41:57;99933.47;;;18.25;95.15
23733;BME280;12047;53.450;-2.286;2023-03-21T16:46:58;99933.84;;;18.75;94.40
23733;BME280;12047;53.450;-2.286;2023-03-21T16:51:58;99931.78;;;18.57;96.22
23733;BME280;12047;53.450;-2.286;2023-03-21T16:57:01;99926.41;;;18.57;97.04
23733;BME280;12047;53.450;-2.286;2023-03-21T17:02:14;99923.13;;;18.49;98.68
23733;BME280;12047;53.450;-2.286;2023-03-21T17:07:18;99911.59;;;18.42;97.63
23733;BME280;12047;53.450;-2.286;2023-03-21T17:12:18;99921.50;;;18.28;97.62
23733;BME280;12047;53.450;-2.286;2023-03-21T17:17:24;99921.06;;;18.44;97.39
23733;BME280;12047;53.450;-2.286;2023-03-21T17:22:24;99917.78;;;18.49;97.02
23733;BME280;12047;53.450;-2.286;2023-03-21T17:27:27;99900.22;;;18.33;98.45
23733;BME280;12047;53.450;-2.286;2023-03-21T17:32:28;99895.09;;;18.12;100.00
23733;BME280;12047;53.450;-2.286;2023-03-21T17:43:00;99871.16;;;18.10;100.00
23733;BME280;12047;53.450;-2.286;2023-03-21T17:48:03;99870.53;;;17.82;100.00
23733;BME280;12047;53.450;-2.286;2023-03-21T17:53:05;99875.91;;;18.21;100.00
23733;BME280;12047;53.450;-2.286;2023-03-21T17:58:06;99865.63;;;17.72;100.00
23733;BME280;12047;53.450;-2.286;2023-03-21T18:03:06;99860.03;;;18.13;100.00
23733;BME280;12047;53.450;-2.286;2023-03-21T18:08:07;99847.41;;;17.61;100.00
23733;BME280;12047;53.450;-2.286;2023-03-21T18:13:07;99845.81;;;17.93;100.00
23733;BME280;12047;53.450;-2.286;2023-03-21T18:18:09;99848.25;;;17.55;100.00
23733;BME280;12047;53.450;-2.286;2023-03-21T18:23:11;99842.81;;;17.22;100.00
23733;BME280;12047;53.450;-2.286;2023-03-21T18:28:12;99838.09;;;17.24;100.00
23733;BME280;12047;53.450;-2.286;2023-03-21T18:33:13;99834.81;;;17.35;100.00
23733;BME280;12047;53.450;-2.286;2023-03-21T18:38:14;99837.91;;;17.39;100.00
23733;BME280;12047;53.450;-2.286;2023-03-21T18:43:15;99837.84;;;17.06;100.00
23733;BME280;12047;53.450;-2.286;2023-03-21T18:48:15;99837.81;;;16.99;100.00
23733;BME280;12047;53.450;-2.286;2023-03-21T18:53:15;99834.78;;;17.15;100.00
23733;BME280;12047;53.450;-2.286;2023-03-21T18:58:16;99836.09;;;16.16;100.00
23733;BME280;12047;53.450;-2.286;2023-03-21T19:03:17;99831.78;;;16.77;100.00
23733;BME280;12047;53.450;-2.286;2023-03-21T19:08:18;99839.72;;;16.36;100.00
23733;BME280;12047;53.450;-2.286;2023-03-21T19:13:18;99824.72;;;16.35;100.00
23733;BME280;12047;53.450;-2.286;2023-03-21T19:18:20;99810.44;;;16.21;100.00
23733;BME280;12047;53.450;-2.286;2023-03-21T19:23:20;99813.63;;;16.31;100.00
23733;BME280;12047;53.450;-2.286;2023-03-21T19:28:21;99799.59;;;16.64;100.00
23733;BME280;12047;53.450;-2.286;2023-03-21T19:33:22;99792.88;;;16.40;100.00
23733;BME280;12047;53.450;-2.286;2023-03-21T19:38:23;99792.88;;;16.06;100.00
23733;BME280;12047;53.450;-2.286;2023-03-21T19:43:24;99783.63;;;15.74;100.00
23733;BME280;12047;53.450;-2.286;2023-03-21T19:48:25;99786.63;;;16.26;100.00
23733;BME280;12047;53.450;-2.286;2023-03-21T19:53:26;99781.38;;;15.77;100.00
23733;BME280;12047;53.450;-2.286;2023-03-21T19:58:27;99768.31;;;16.23;100.00
23733;BME280;12047;53.450;-2.286;2023-03-21T20:03:28;99758.84;;;15.58;100.00
23733;BME280;12047;53.450;-2.286;2023-03-21T20:08:28;99750.03;;;15.92;100.00
23733;BME280;12047;53.450;-2.286;2023-03-21T20:13:30;99738.88;;;15.54;100.00
23733;BME280;12047;53.450;-2.286;2023-03-21T20:18:32;99725.06;;;15.72;100.00
23733;BME280;12047;53.450;-2.286;2023-03-21T20:23:34;99711.88;;;15.71;100.00
23733;BME280;12047;53.450;-2.286;2023-03-21T20:28:36;99707.16;;;16.01;100.00
23733;BME280;12047;53.450;-2.286;2023-03-21T20:33:36;99700.16;;;15.44;100.00
23733;BME280;12047;53.450;-2.286;2023-03-21T20:38:37;99672.38;;;15.10;100.00
23733;BME280;12047;53.450;-2.286;2023-03-21T20:43:38;99657.94;;;15.54;100.00
23733;BME280;12047;53.450;-2.286;2023-03-21T20:48:38;99642.75;;;15.89;100.00
23733;BME280;12047;53.450;-2.286;2023-03-21T20:53:39;99630.06;;;15.56;100.00
23733;BME280;12047;53.450;-2.286;2023-03-21T20:58:40;99613.34;;;15.48;100.00
23733;BME280;12047;53.450;-2.286;2023-03-21T21:03:41;99596.63;;;15.39;100.00
23733;BME280;12047;53.450;-2.286;2023-03-21T21:08:44;99587.59;;;15.68;100.00
23733;BME280;12047;53.450;-2.286;2023-03-21T21:13:48;99589.25;;;15.41;100.00
23733;BME280;12047;53.450;-2.286;2023-03-21T21:18:48;99573.03;;;15.71;100.00
23733;BME280;12047;53.450;-2.286;2023-03-21T21:23:48;99562.81;;;15.81;100.00
23733;BME280;12047;53.450;-2.286;2023-03-21T21:28:50;99549.63;;;15.73;100.00
23733;BME280;12047;53.450;-2.286;2023-03-21T21:33:52;99536.97;;;15.94;100.00
23733;BME280;12047;53.450;-2.286;2023-03-21T21:38:53;99527.81;;;15.69;100.00
23733;BME280;12047;53.450;-2.286;2023-03-21T21:43:54;99520.13;;;15.53;100.00
23733;BME280;12047;53.450;-2.286;2023-03-21T21:48:54;99514.38;;;15.49;100.00
23733;BME280;12047;53.450;-2.286;2023-03-21T21:53:56;99495.25;;;15.46;100.00
23733;BME280;12047;53.450;-2.286;2023-03-21T21:58:57;99492.19;;;15.08;100.00
23733;BME280;12047;53.450;-2.286;2023-03-21T22:04:01;99480.84;;;15.40;100.00
23733;BME280;12047;53.450;-2.286;2023-03-21T22:09:06;99473.47;;;15.42;100.00
23733;BME280;12047;53.450;-2.286;2023-03-21T22:14:07;99456.44;;;15.43;100.00
23733;BME280;12047;53.450;-2.286;2023-03-21T22:19:08;99451.75;;;15.11;100.00
23733;BME280;12047;53.450;-2.286;2023-03-21T22:24:09;99428.50;;;15.32;100.00
23733;BME280;12047;53.450;-2.286;2023-03-21T22:29:09;99430.41;;;15.52;100.00
23733;BME280;12047;53.450;-2.286;2023-03-21T22:34:10;99403.81;;;15.24;100.00
23733;BME280;12047;53.450;-2.286;2023-03-21T22:39:10;99388.09;;;15.55;100.00
23733;BME280;12047;53.450;-2.286;2023-03-21T22:44:11;99388.59;;;15.18;100.00
23733;BME280;12047;53.450;-2.286;2023-03-21T22:49:12;99369.50;;;15.82;100.00
23733;BME280;12047;53.450;-2.286;2023-03-21T22:54:13;99352.56;;;15.48;100.00
23733;BME280;12047;53.450;-2.286;2023-03-21T22:59:13;99345.34;;;15.42;100.00
23733;BME280;12047;53.450;-2.286;2023-03-21T23:04:15;99335.13;;;15.52;100.00
23733;BME280;12047;53.450;-2.286;2023-03-21T23:09:16;99322.84;;;15.97;100.00
23733;BME280;12047;53.450;-2.286;2023-03-21T23:14:17;99309.91;;;16.01;100.00
23733;BME280;12047;53.450;-2.286;2023-03-21T23:19:19;99306.19;;;15.89;100.00
23733;BME280;12047;53.450;-2.286;2023-03-21T23:24:21;99301.47;;;15.64;100.00
23733;BME280;12047;53.450;-2.286;2023-03-21T23:29:25;99296.34;;;15.96;100.00
23733;BME280;12047;53.450;-2.286;2023-03-21T23:34:25;99290.38;;;15.61;100.00
23733;BME280;12047;53.450;-2.286;2023-03-21T23:39:27;99273.75;;;15.79;100.00
23733;BME280;12047;53.450;-2.286;2023-03-21T23:44:27;99263.50;;;15.82;100.00
23733;BME280;12047;53.450;-2.286;2023-03-21T23:49:28;99246.81;;;15.47;100.00
23733;BME280;12047;53.450;-2.286;2023-03-21T23:54:32;99241.47;;;15.27;100.00
23733;BME280;12047;53.450;-2.286;2023-03-21T23:59:33;99250.97;;;15.56;100.00
